sensor_id;sensor_type;location;lat;lon;timestamp;P1;durP1;ratioP1;P2;durP2;ratioP2
58784;SDS011;44557;51.862;19.378;2024-03-07T00:00:48;35.20;;;23.60;;
58784;SDS011;44557;51.862;19.378;2024-03-07T00:03:05;34.80;;;23.20;;
58784;SDS011;44557;51.862;19.378;2024-03-07T00:05:07;34.40;;;23.50;;
58784;SDS011;44557;51.862;19.378;2024-03-07T00:07:10;34.20;;;23.90;;
58784;SDS011;44557;51.862;19.378;2024-03-07T00:09:12;32.70;;;23.50;;
58784;SDS011;44557;51.862;19.378;2024-03-07T00:11:15;35.50;;;23.70;;
58784;SDS011;44557;51.862;19.378;2024-03-07T00:13:17;35.50;;;23.30;;
58784;SDS011;44557;51.862;19.378;2024-03-07T00:15:18;32.70;;;22.80;;
58784;SDS011;44557;51.862;19.378;2024-03-07T00:17:20;29.80;;;21.90;;
58784;SDS011;44557;51.862;19.378;2024-03-07T00:19:22;32.10;;;23.00;;
58784;SDS011;44557;51.862;19.378;2024-03-07T00:21:28;30.90;;;22.60;;
58784;SDS011;44557;51.862;19.378;2024-03-07T00:23:30;32.20;;;22.50;;
58784;SDS011;44557;51.862;19.378;2024-03-07T00:25:33;32.50;;;22.40;;
58784;SDS011;44557;51.862;19.378;2024-03-07T00:27:35;33.40;;;22.10;;
58784;SDS011;44557;51.862;19.378;2024-03-07T00:29:37;29.70;;;22.20;;
58784;SDS011;44557;51.862;19.378;2024-03-07T00:31:39;33.90;;;23.70;;
58784;SDS011;44557;51.862;19.378;2024-03-07T00:33:41;35.80;;;23.50;;
58784;SDS011;44557;51.862;19.378;2024-03-07T00:35:44;31.00;;;22.30;;
58784;SDS011;44557;51.862;19.378;2024-03-07T00:37:46;32.70;;;22.90;;
58784;SDS011;44557;51.862;19.378;2024-03-07T00:39:47;34.10;;;23.20;;
58784;SDS011;44557;51.862;19.378;2024-03-07T00:41:49;31.80;;;22.60;;
58784;SDS011;44557;51.862;19.378;2024-03-07T00:43:51;31.40;;;22.60;;
58784;SDS011;44557;51.862;19.378;2024-03-07T00:45:53;33.70;;;22.20;;
58784;SDS011;44557;51.862;19.378;2024-03-07T00:47:54;31.30;;;22.00;;
58784;SDS011;44557;51.862;19.378;2024-03-07T00:49:56;34.70;;;23.50;;
58784;SDS011;44557;51.862;19.378;2024-03-07T00:51:58;32.10;;;23.00;;
58784;SDS011;44557;51.862;19.378;2024-03-07T00:54:01;32.40;;;22.20;;
58784;SDS011;44557;51.862;19.378;2024-03-07T00:56:02;34.30;;;23.10;;
58784;SDS011;44557;51.862;19.378;2024-03-07T00:58:05;33.30;;;23.40;;
58784;SDS011;44557;51.862;19.378;2024-03-07T01:00:08;31.00;;;22.80;;
58784;SDS011;44557;51.862;19.378;2024-03-07T01:02:15;35.50;;;23.20;;
58784;SDS011;44557;51.862;19.378;2024-03-07T01:04:18;30.80;;;22.40;;
58784;SDS011;44557;51.862;19.378;2024-03-07T01:06:20;33.10;;;23.20;;
58784;SDS011;44557;51.862;19.378;2024-03-07T01:08:21;30.80;;;22.90;;
58784;SDS011;44557;51.862;19.378;2024-03-07T01:10:23;32.60;;;23.20;;
58784;SDS011;44557;51.862;19.378;2024-03-07T01:12:25;30.40;;;23.20;;
58784;SDS011;44557;51.862;19.378;2024-03-07T01:14:32;31.90;;;22.90;;
58784;SDS011;44557;51.862;19.378;2024-03-07T01:16:34;32.80;;;23.30;;
58784;SDS011;44557;51.862;19.378;2024-03-07T01:18:37;32.00;;;23.80;;
58784;SDS011;44557;51.862;19.378;2024-03-07T01:20:39;28.80;;;22.40;;
58784;SDS011;44557;51.862;19.378;2024-03-07T01:22:40;32.60;;;24.00;;
58784;SDS011;44557;51.862;19.378;2024-03-07T01:24:43;33.10;;;23.10;;
58784;SDS011;44557;51.862;19.378;2024-03-07T01:26:45;31.80;;;23.20;;
58784;SDS011;44557;51.862;19.378;2024-03-07T01:28:46;34.40;;;23.80;;
58784;SDS011;44557;51.862;19.378;2024-03-07T01:30:49;32.00;;;23.60;;
58784;SDS011;44557;51.862;19.378;2024-03-07T01:32:52;33.70;;;23.00;;
58784;SDS011;44557;51.862;19.378;2024-03-07T01:34:54;34.00;;;24.20;;
58784;SDS011;44557;51.862;19.378;2024-03-07T01:36:56;33.10;;;24.10;;
58784;SDS011;44557;51.862;19.378;2024-03-07T01:38:58;30.50;;;23.20;;
58784;SDS011;44557;51.862;19.378;2024-03-07T01:41:00;33.10;;;24.80;;
58784;SDS011;44557;51.862;19.378;2024-03-07T01:43:02;29.50;;;22.80;;
58784;SDS011;44557;51.862;19.378;2024-03-07T01:45:04;30.50;;;23.60;;
58784;SDS011;44557;51.862;19.378;2024-03-07T01:47:07;32.70;;;24.10;;
58784;SDS011;44557;51.862;19.378;2024-03-07T01:49:09;33.40;;;23.00;;
58784;SDS011;44557;51.862;19.378;2024-03-07T01:51:11;31.70;;;23.30;;
58784;SDS011;44557;51.862;19.378;2024-03-07T01:53:12;33.00;;;23.70;;
58784;SDS011;44557;51.862;19.378;2024-03-07T01:55:16;31.40;;;23.20;;
58784;SDS011;44557;51.862;19.378;2024-03-07T01:57:18;31.30;;;23.80;;
58784;SDS011;44557;51.862;19.378;2024-03-07T01:59:20;32.70;;;23.60;;
58784;SDS011;44557;51.862;19.378;2024-03-07T02:01:22;34.50;;;23.80;;
58784;SDS011;44557;51.862;19.378;2024-03-07T02:03:24;29.90;;;21.70;;
58784;SDS011;44557;51.862;19.378;2024-03-07T02:05:26;31.90;;;22.70;;
58784;SDS011;44557;51.862;19.378;2024-03-07T02:07:28;29.90;;;22.50;;
58784;SDS011;44557;51.862;19.378;2024-03-07T02:09:29;32.40;;;22.70;;
58784;SDS011;44557;51.862;19.378;2024-03-07T02:11:31;31.20;;;22.70;;
58784;SDS011;44557;51.862;19.378;2024-03-07T02:13:33;30.50;;;23.20;;
58784;SDS011;44557;51.862;19.378;2024-03-07T02:15:35;29.30;;;22.10;;
58784;SDS011;44557;51.862;19.378;2024-03-07T02:17:37;29.50;;;21.80;;
58784;SDS011;44557;51.862;19.378;2024-03-07T02:19:40;30.30;;;22.80;;
58784;SDS011;44557;51.862;19.378;2024-03-07T02:21:42;33.70;;;22.70;;
58784;SDS011;44557;51.862;19.378;2024-03-07T02:23:43;30.20;;;21.60;;
58784;SDS011;44557;51.862;19.378;2024-03-07T02:25:45;31.20;;;21.90;;
58784;SDS011;44557;51.862;19.378;2024-03-07T02:27:47;27.40;;;20.90;;
58784;SDS011;44557;51.862;19.378;2024-03-07T02:29:48;26.10;;;20.60;;
58784;SDS011;44557;51.862;19.378;2024-03-07T02:31:52;29.40;;;21.70;;
58784;SDS011;44557;51.862;19.378;2024-03-07T02:33:54;28.70;;;20.70;;
58784;SDS011;44557;51.862;19.378;2024-03-07T02:35:56;28.60;;;22.00;;
58784;SDS011;44557;51.862;19.378;2024-03-07T02:37:57;26.30;;;21.10;;
58784;SDS011;44557;51.862;19.378;2024-03-07T02:39:59;27.20;;;20.70;;
58784;SDS011;44557;51.862;19.378;2024-03-07T02:42:01;28.00;;;21.20;;
58784;SDS011;44557;51.862;19.378;2024-03-07T02:44:03;27.10;;;20.80;;
58784;SDS011;44557;51.862;19.378;2024-03-07T02:46:05;28.90;;;20.60;;
58784;SDS011;44557;51.862;19.378;2024-03-07T02:48:07;28.50;;;21.10;;
58784;SDS011;44557;51.862;19.378;2024-03-07T02:50:10;26.80;;;19.90;;
58784;SDS011;44557;51.862;19.378;2024-03-07T02:52:12;27.90;;;20.00;;
58784;SDS011;44557;51.862;19.378;2024-03-07T02:54:14;25.50;;;20.20;;
58784;SDS011;44557;51.862;19.378;2024-03-07T02:56:16;28.40;;;20.00;;
58784;SDS011;44557;51.862;19.378;2024-03-07T02:58:18;25.40;;;18.70;;
58784;SDS011;44557;51.862;19.378;2024-03-07T03:00:20;25.90;;;19.30;;
58784;SDS011;44557;51.862;19.378;2024-03-07T03:02:22;25.60;;;19.20;;
58784;SDS011;44557;51.862;19.378;2024-03-07T03:04:23;26.00;;;19.90;;
58784;SDS011;44557;51.862;19.378;2024-03-07T03:06:26;27.20;;;19.30;;
58784;SDS011;44557;51.862;19.378;2024-03-07T03:08:28;26.30;;;19.40;;
58784;SDS011;44557;51.862;19.378;2024-03-07T03:10:29;27.00;;;20.10;;
58784;SDS011;44557;51.862;19.378;2024-03-07T03:12:32;28.20;;;21.50;;
58784;SDS011;44557;51.862;19.378;2024-03-07T03:14:34;27.40;;;20.40;;
58784;SDS011;44557;51.862;19.378;2024-03-07T03:16:36;25.70;;;19.30;;
58784;SDS011;44557;51.862;19.378;2024-03-07T03:18:38;25.80;;;19.90;;
58784;SDS011;44557;51.862;19.378;2024-03-07T03:20:40;26.30;;;20.70;;
58784;SDS011;44557;51.862;19.378;2024-03-07T03:22:43;31.40;;;20.50;;
58784;SDS011;44557;51.862;19.378;2024-03-07T03:24:45;28.10;;;20.00;;
58784;SDS011;44557;51.862;19.378;2024-03-07T03:26:47;25.90;;;19.40;;
58784;SDS011;44557;51.862;19.378;2024-03-07T03:28:49;26.40;;;20.10;;
58784;SDS011;44557;51.862;19.378;2024-03-07T03:30:51;28.70;;;19.60;;
58784;SDS011;44557;51.862;19.378;2024-03-07T03:32:54;28.10;;;20.00;;
58784;SDS011;44557;51.862;19.378;2024-03-07T03:34:56;26.70;;;19.60;;
58784;SDS011;44557;51.862;19.378;2024-03-07T03:36:58;24.50;;;20.00;;
58784;SDS011;44557;51.862;19.378;2024-03-07T03:39:01;27.80;;;20.80;;
58784;SDS011;44557;51.862;19.378;2024-03-07T03:41:03;26.60;;;19.90;;
58784;SDS011;44557;51.862;19.378;2024-03-07T03:43:06;27.20;;;20.50;;
58784;SDS011;44557;51.862;19.378;2024-03-07T03:45:09;28.50;;;20.60;;
58784;SDS011;44557;51.862;19.378;2024-03-07T03:47:15;27.80;;;21.30;;
58784;SDS011;44557;51.862;19.378;2024-03-07T03:49:18;27.70;;;20.70;;
58784;SDS011;44557;51.862;19.378;2024-03-07T03:51:20;26.50;;;20.40;;
58784;SDS011;44557;51.862;19.378;2024-03-07T03:53:23;27.00;;;20.50;;
58784;SDS011;44557;51.862;19.378;2024-03-07T03:55:25;27.90;;;21.40;;
58784;SDS011;44557;51.862;19.378;2024-03-07T03:57:27;27.70;;;20.20;;
58784;SDS011;44557;51.862;19.378;2024-03-07T03:59:30;27.60;;;20.40;;
58784;SDS011;44557;51.862;19.378;2024-03-07T04:01:32;28.10;;;21.20;;
58784;SDS011;44557;51.862;19.378;2024-03-07T04:03:34;26.40;;;20.50;;
58784;SDS011;44557;51.862;19.378;2024-03-07T04:05:36;27.20;;;21.30;;
58784;SDS011;44557;51.862;19.378;2024-03-07T04:07:37;28.10;;;22.00;;
58784;SDS011;44557;51.862;19.378;2024-03-07T04:09:39;26.70;;;21.10;;
58784;SDS011;44557;51.862;19.378;2024-03-07T04:11:44;30.10;;;21.40;;
58784;SDS011;44557;51.862;19.378;2024-03-07T04:13:47;27.60;;;21.40;;
58784;SDS011;44557;51.862;19.378;2024-03-07T04:15:50;28.40;;;22.30;;
58784;SDS011;44557;51.862;19.378;2024-03-07T04:17:53;30.30;;;21.40;;
58784;SDS011;44557;51.862;19.378;2024-03-07T04:19:54;29.60;;;21.70;;
58784;SDS011;44557;51.862;19.378;2024-03-07T04:21:56;27.70;;;21.20;;
58784;SDS011;44557;51.862;19.378;2024-03-07T04:23:58;27.90;;;21.20;;
58784;SDS011;44557;51.862;19.378;2024-03-07T04:26:00;28.30;;;22.40;;
58784;SDS011;44557;51.862;19.378;2024-03-07T04:28:02;29.40;;;22.20;;
58784;SDS011;44557;51.862;19.378;2024-03-07T04:30:05;30.20;;;22.40;;
58784;SDS011;44557;51.862;19.378;2024-03-07T04:32:08;30.30;;;22.50;;
58784;SDS011;44557;51.862;19.378;2024-03-07T04:34:10;27.50;;;21.60;;
58784;SDS011;44557;51.862;19.378;2024-03-07T04:36:12;30.00;;;22.60;;
58784;SDS011;44557;51.862;19.378;2024-03-07T04:38:14;30.50;;;23.10;;
58784;SDS011;44557;51.862;19.378;2024-03-07T04:40:16;29.20;;;22.60;;
58784;SDS011;44557;51.862;19.378;2024-03-07T04:42:18;30.50;;;22.30;;
58784;SDS011;44557;51.862;19.378;2024-03-07T04:44:20;30.90;;;22.70;;
58784;SDS011;44557;51.862;19.378;2024-03-07T04:46:23;29.20;;;22.10;;
58784;SDS011;44557;51.862;19.378;2024-03-07T04:48:25;28.00;;;22.20;;
58784;SDS011;44557;51.862;19.378;2024-03-07T04:50:27;29.40;;;21.40;;
58784;SDS011;44557;51.862;19.378;2024-03-07T04:52:30;29.00;;;21.90;;
58784;SDS011;44557;51.862;19.378;2024-03-07T04:54:32;30.30;;;23.40;;
58784;SDS011;44557;51.862;19.378;2024-03-07T04:56:35;30.80;;;22.60;;
58784;SDS011;44557;51.862;19.378;2024-03-07T04:58:38;29.30;;;22.00;;
58784;SDS011;44557;51.862;19.378;2024-03-07T05:00:40;30.90;;;22.60;;
58784;SDS011;44557;51.862;19.378;2024-03-07T05:02:42;31.20;;;22.40;;
58784;SDS011;44557;51.862;19.378;2024-03-07T05:04:44;31.50;;;23.70;;
58784;SDS011;44557;51.862;19.378;2024-03-07T05:06:45;29.50;;;23.00;;
58784;SDS011;44557;51.862;19.378;2024-03-07T05:08:50;30.20;;;22.60;;
58784;SDS011;44557;51.862;19.378;2024-03-07T05:10:52;30.00;;;22.20;;
58784;SDS011;44557;51.862;19.378;2024-03-07T05:12:54;29.70;;;22.90;;
58784;SDS011;44557;51.862;19.378;2024-03-07T05:14:56;27.90;;;21.10;;
58784;SDS011;44557;51.862;19.378;2024-03-07T05:16:58;28.70;;;22.00;;
58784;SDS011;44557;51.862;19.378;2024-03-07T05:19:06;29.30;;;21.80;;
58784;SDS011;44557;51.862;19.378;2024-03-07T05:21:10;25.20;;;19.70;;
58784;SDS011;44557;51.862;19.378;2024-03-07T05:23:31;35.20;;;25.80;;
58784;SDS011;44557;51.862;19.378;2024-03-07T05:25:37;27.80;;;21.10;;
58784;SDS011;44557;51.862;19.378;2024-03-07T05:27:41;25.80;;;19.30;;
58784;SDS011;44557;51.862;19.378;2024-03-07T05:29:43;29.90;;;20.80;;
58784;SDS011;44557;51.862;19.378;2024-03-07T05:31:46;28.80;;;21.00;;
58784;SDS011;44557;51.862;19.378;2024-03-07T05:33:48;28.60;;;20.90;;
58784;SDS011;44557;51.862;19.378;2024-03-07T05:35:50;28.10;;;20.60;;
58784;SDS011;44557;51.862;19.378;2024-03-07T05:37:51;27.00;;;20.50;;
58784;SDS011;44557;51.862;19.378;2024-03-07T05:39:53;24.60;;;19.20;;
58784;SDS011;44557;51.862;19.378;2024-03-07T05:41:55;29.10;;;19.40;;
58784;SDS011;44557;51.862;19.378;2024-03-07T05:43:59;22.70;;;18.60;;
58784;SDS011;44557;51.862;19.378;2024-03-07T05:46:01;25.60;;;19.00;;
58784;SDS011;44557;51.862;19.378;2024-03-07T05:48:14;25.60;;;20.00;;
58784;SDS011;44557;51.862;19.378;2024-03-07T05:50:22;25.20;;;19.00;;
58784;SDS011;44557;51.862;19.378;2024-03-07T05:52:24;26.40;;;18.60;;
58784;SDS011;44557;51.862;19.378;2024-03-07T05:54:26;25.30;;;18.10;;
58784;SDS011;44557;51.862;19.378;2024-03-07T05:56:28;25.00;;;18.70;;
58784;SDS011;44557;51.862;19.378;2024-03-07T05:58:31;24.40;;;18.00;;
58784;SDS011;44557;51.862;19.378;2024-03-07T06:00:33;24.30;;;17.90;;
58784;SDS011;44557;51.862;19.378;2024-03-07T06:02:36;25.30;;;18.10;;
58784;SDS011;44557;51.862;19.378;2024-03-07T06:04:39;28.40;;;20.30;;
58784;SDS011;44557;51.862;19.378;2024-03-07T06:06:40;30.60;;;20.90;;
58784;SDS011;44557;51.862;19.378;2024-03-07T06:08:43;28.60;;;19.90;;
58784;SDS011;44557;51.862;19.378;2024-03-07T06:10:46;26.90;;;19.30;;
58784;SDS011;44557;51.862;19.378;2024-03-07T06:12:49;27.20;;;18.80;;
58784;SDS011;44557;51.862;19.378;2024-03-07T06:14:50;26.90;;;19.50;;
58784;SDS011;44557;51.862;19.378;2024-03-07T06:16:53;28.60;;;21.30;;
58784;SDS011;44557;51.862;19.378;2024-03-07T06:18:54;27.70;;;19.90;;
58784;SDS011;44557;51.862;19.378;2024-03-07T06:20:56;29.30;;;20.00;;
58784;SDS011;44557;51.862;19.378;2024-03-07T06:22:58;27.90;;;20.30;;
58784;SDS011;44557;51.862;19.378;2024-03-07T06:25:00;29.70;;;20.90;;
58784;SDS011;44557;51.862;19.378;2024-03-07T06:27:07;28.70;;;21.00;;
58784;SDS011;44557;51.862;19.378;2024-03-07T06:31:19;29.60;;;21.50;;
58784;SDS011;44557;51.862;19.378;2024-03-07T06:33:21;29.70;;;21.60;;
58784;SDS011;44557;51.862;19.378;2024-03-07T06:35:23;31.00;;;21.80;;
58784;SDS011;44557;51.862;19.378;2024-03-07T06:37:25;29.00;;;20.30;;
58784;SDS011;44557;51.862;19.378;2024-03-07T06:39:27;28.00;;;18.90;;
58784;SDS011;44557;51.862;19.378;2024-03-07T06:41:29;27.50;;;18.80;;
58784;SDS011;44557;51.862;19.378;2024-03-07T06:43:31;30.20;;;19.50;;
58784;SDS011;44557;51.862;19.378;2024-03-07T06:45:33;29.00;;;20.00;;
58784;SDS011;44557;51.862;19.378;2024-03-07T06:47:35;31.40;;;22.70;;
58784;SDS011;44557;51.862;19.378;2024-03-07T06:49:37;40.90;;;28.00;;
58784;SDS011;44557;51.862;19.378;2024-03-07T06:51:41;40.30;;;25.40;;
58784;SDS011;44557;51.862;19.378;2024-03-07T06:53:43;35.60;;;25.70;;
58784;SDS011;44557;51.862;19.378;2024-03-07T06:55:47;35.60;;;25.80;;
58784;SDS011;44557;51.862;19.378;2024-03-07T06:57:50;35.30;;;24.90;;
58784;SDS011;44557;51.862;19.378;2024-03-07T06:59:52;36.20;;;25.10;;
58784;SDS011;44557;51.862;19.378;2024-03-07T07:01:54;31.00;;;21.70;;
58784;SDS011;44557;51.862;19.378;2024-03-07T07:03:55;30.20;;;21.00;;
58784;SDS011;44557;51.862;19.378;2024-03-07T07:05:59;25.90;;;17.30;;
58784;SDS011;44557;51.862;19.378;2024-03-07T07:08:02;23.40;;;15.80;;
58784;SDS011;44557;51.862;19.378;2024-03-07T07:10:06;29.50;;;20.80;;
58784;SDS011;44557;51.862;19.378;2024-03-07T07:12:10;25.20;;;18.20;;
58784;SDS011;44557;51.862;19.378;2024-03-07T07:14:12;24.90;;;17.30;;
58784;SDS011;44557;51.862;19.378;2024-03-07T07:16:14;27.30;;;18.50;;
58784;SDS011;44557;51.862;19.378;2024-03-07T07:18:20;26.20;;;18.60;;
58784;SDS011;44557;51.862;19.378;2024-03-07T07:20:22;27.00;;;19.00;;
58784;SDS011;44557;51.862;19.378;2024-03-07T07:22:25;27.80;;;19.00;;
58784;SDS011;44557;51.862;19.378;2024-03-07T07:24:27;25.50;;;18.80;;
58784;SDS011;44557;51.862;19.378;2024-03-07T07:26:30;26.80;;;18.90;;
58784;SDS011;44557;51.862;19.378;2024-03-07T07:28:34;26.30;;;18.40;;
58784;SDS011;44557;51.862;19.378;2024-03-07T07:30:37;25.00;;;18.40;;
58784;SDS011;44557;51.862;19.378;2024-03-07T07:32:39;25.60;;;19.00;;
58784;SDS011;44557;51.862;19.378;2024-03-07T07:34:41;25.20;;;17.90;;
58784;SDS011;44557;51.862;19.378;2024-03-07T07:36:44;25.60;;;18.40;;
58784;SDS011;44557;51.862;19.378;2024-03-07T07:38:45;26.20;;;18.60;;
58784;SDS011;44557;51.862;19.378;2024-03-07T07:40:48;30.70;;;19.70;;
58784;SDS011;44557;51.862;19.378;2024-03-07T07:42:51;26.40;;;17.50;;
58784;SDS011;44557;51.862;19.378;2024-03-07T07:44:53;25.00;;;17.30;;
58784;SDS011;44557;51.862;19.378;2024-03-07T07:46:55;24.40;;;16.90;;
58784;SDS011;44557;51.862;19.378;2024-03-07T07:48:56;24.40;;;17.40;;
58784;SDS011;44557;51.862;19.378;2024-03-07T07:50:59;24.30;;;17.10;;
58784;SDS011;44557;51.862;19.378;2024-03-07T07:53:00;23.40;;;17.10;;
58784;SDS011;44557;51.862;19.378;2024-03-07T07:55:02;26.40;;;18.70;;
58784;SDS011;44557;51.862;19.378;2024-03-07T07:57:04;24.20;;;17.30;;
58784;SDS011;44557;51.862;19.378;2024-03-07T07:59:06;28.40;;;18.60;;
58784;SDS011;44557;51.862;19.378;2024-03-07T08:01:10;25.30;;;18.00;;
58784;SDS011;44557;51.862;19.378;2024-03-07T08:03:12;24.20;;;17.10;;
58784;SDS011;44557;51.862;19.378;2024-03-07T08:05:17;24.50;;;17.10;;
58784;SDS011;44557;51.862;19.378;2024-03-07T08:07:20;24.70;;;17.20;;
58784;SDS011;44557;51.862;19.378;2024-03-07T08:09:21;25.00;;;17.80;;
58784;SDS011;44557;51.862;19.378;2024-03-07T08:11:23;25.40;;;17.60;;
58784;SDS011;44557;51.862;19.378;2024-03-07T08:13:25;24.00;;;17.00;;
58784;SDS011;44557;51.862;19.378;2024-03-07T08:15:27;23.70;;;17.00;;
58784;SDS011;44557;51.862;19.378;2024-03-07T08:17:30;24.00;;;17.00;;
58784;SDS011;44557;51.862;19.378;2024-03-07T08:19:32;24.20;;;17.50;;
58784;SDS011;44557;51.862;19.378;2024-03-07T08:21:34;22.30;;;17.00;;
58784;SDS011;44557;51.862;19.378;2024-03-07T08:23:36;24.70;;;17.90;;
58784;SDS011;44557;51.862;19.378;2024-03-07T08:25:38;25.60;;;18.80;;
58784;SDS011;44557;51.862;19.378;2024-03-07T08:27:42;24.10;;;16.50;;
58784;SDS011;44557;51.862;19.378;2024-03-07T08:29:47;24.70;;;17.10;;
58784;SDS011;44557;51.862;19.378;2024-03-07T08:31:49;23.90;;;17.30;;
58784;SDS011;44557;51.862;19.378;2024-03-07T08:33:51;23.00;;;16.40;;
58784;SDS011;44557;51.862;19.378;2024-03-07T08:35:52;22.00;;;16.50;;
58784;SDS011;44557;51.862;19.378;2024-03-07T08:37:55;27.10;;;21.30;;
58784;SDS011;44557;51.862;19.378;2024-03-07T08:39:59;21.70;;;16.00;;
58784;SDS011;44557;51.862;19.378;2024-03-07T08:42:02;24.00;;;16.50;;
58784;SDS011;44557;51.862;19.378;2024-03-07T08:44:04;22.90;;;15.50;;
58784;SDS011;44557;51.862;19.378;2024-03-07T08:46:06;23.50;;;16.00;;
58784;SDS011;44557;51.862;19.378;2024-03-07T08:48:09;23.50;;;16.90;;
58784;SDS011;44557;51.862;19.378;2024-03-07T08:50:14;24.90;;;16.50;;
58784;SDS011;44557;51.862;19.378;2024-03-07T08:52:17;24.30;;;17.30;;
58784;SDS011;44557;51.862;19.378;2024-03-07T08:54:20;21.60;;;16.90;;
58784;SDS011;44557;51.862;19.378;2024-03-07T08:56:22;23.40;;;16.50;;
58784;SDS011;44557;51.862;19.378;2024-03-07T08:58:24;21.60;;;16.40;;
58784;SDS011;44557;51.862;19.378;2024-03-07T09:00:27;25.20;;;17.70;;
58784;SDS011;44557;51.862;19.378;2024-03-07T09:02:29;23.90;;;16.90;;
58784;SDS011;44557;51.862;19.378;2024-03-07T09:04:31;23.90;;;16.70;;
58784;SDS011;44557;51.862;19.378;2024-03-07T09:06:32;24.60;;;18.30;;
58784;SDS011;44557;51.862;19.378;2024-03-07T09:08:35;25.00;;;17.40;;
58784;SDS011;44557;51.862;19.378;2024-03-07T09:10:37;26.50;;;18.20;;
58784;SDS011;44557;51.862;19.378;2024-03-07T09:12:42;26.00;;;18.30;;
58784;SDS011;44557;51.862;19.378;2024-03-07T09:14:45;28.50;;;18.30;;
58784;SDS011;44557;51.862;19.378;2024-03-07T09:16:47;26.00;;;19.70;;
58784;SDS011;44557;51.862;19.378;2024-03-07T09:18:50;25.30;;;18.90;;
58784;SDS011;44557;51.862;19.378;2024-03-07T09:20:53;26.90;;;18.20;;
58784;SDS011;44557;51.862;19.378;2024-03-07T09:22:55;26.30;;;18.20;;
58784;SDS011;44557;51.862;19.378;2024-03-07T09:24:57;22.20;;;16.50;;
58784;SDS011;44557;51.862;19.378;2024-03-07T09:26:59;24.40;;;17.70;;
58784;SDS011;44557;51.862;19.378;2024-03-07T09:29:01;22.00;;;16.70;;
58784;SDS011;44557;51.862;19.378;2024-03-07T09:31:07;23.30;;;16.00;;
58784;SDS011;44557;51.862;19.378;2024-03-07T09:33:09;22.30;;;16.70;;
58784;SDS011;44557;51.862;19.378;2024-03-07T09:35:12;25.30;;;16.80;;
58784;SDS011;44557;51.862;19.378;2024-03-07T09:37:16;23.80;;;17.40;;
58784;SDS011;44557;51.862;19.378;2024-03-07T09:39:20;25.20;;;18.50;;
58784;SDS011;44557;51.862;19.378;2024-03-07T09:41:23;24.20;;;17.60;;
58784;SDS011;44557;51.862;19.378;2024-03-07T09:43:26;26.90;;;19.10;;
58784;SDS011;44557;51.862;19.378;2024-03-07T09:45:31;26.30;;;18.80;;
58784;SDS011;44557;51.862;19.378;2024-03-07T09:47:35;24.80;;;18.40;;
58784;SDS011;44557;51.862;19.378;2024-03-07T09:49:37;23.70;;;18.50;;
58784;SDS011;44557;51.862;19.378;2024-03-07T09:51:39;22.70;;;16.40;;
58784;SDS011;44557;51.862;19.378;2024-03-07T09:53:41;22.50;;;16.50;;
58784;SDS011;44557;51.862;19.378;2024-03-07T09:55:46;24.40;;;17.20;;
58784;SDS011;44557;51.862;19.378;2024-03-07T09:57:49;26.80;;;17.20;;
58784;SDS011;44557;51.862;19.378;2024-03-07T09:59:52;21.80;;;16.10;;
58784;SDS011;44557;51.862;19.378;2024-03-07T10:01:55;24.20;;;16.90;;
58784;SDS011;44557;51.862;19.378;2024-03-07T10:03:59;21.40;;;16.20;;
58784;SDS011;44557;51.862;19.378;2024-03-07T10:06:15;26.40;;;17.30;;
58784;SDS011;44557;51.862;19.378;2024-03-07T10:08:18;22.60;;;16.40;;
58784;SDS011;44557;51.862;19.378;2024-03-07T10:10:20;24.60;;;16.70;;
58784;SDS011;44557;51.862;19.378;2024-03-07T10:12:22;24.20;;;16.20;;
58784;SDS011;44557;51.862;19.378;2024-03-07T10:14:27;25.50;;;16.60;;
58784;SDS011;44557;51.862;19.378;2024-03-07T10:16:33;22.20;;;16.40;;
58784;SDS011;44557;51.862;19.378;2024-03-07T10:18:41;22.50;;;17.20;;
58784;SDS011;44557;51.862;19.378;2024-03-07T10:20:43;22.50;;;15.50;;
58784;SDS011;44557;51.862;19.378;2024-03-07T10:22:46;25.10;;;16.50;;
58784;SDS011;44557;51.862;19.378;2024-03-07T10:24:53;20.60;;;15.00;;
58784;SDS011;44557;51.862;19.378;2024-03-07T10:26:56;22.40;;;15.90;;
58784;SDS011;44557;51.862;19.378;2024-03-07T10:28:59;20.90;;;15.30;;
58784;SDS011;44557;51.862;19.378;2024-03-07T10:31:00;25.70;;;16.20;;
58784;SDS011;44557;51.862;19.378;2024-03-07T10:33:04;22.50;;;15.70;;
58784;SDS011;44557;51.862;19.378;2024-03-07T10:35:09;23.90;;;16.80;;
58784;SDS011;44557;51.862;19.378;2024-03-07T10:37:12;23.20;;;17.10;;
58784;SDS011;44557;51.862;19.378;2024-03-07T10:39:17;25.00;;;16.70;;
58784;SDS011;44557;51.862;19.378;2024-03-07T10:41:23;20.80;;;15.50;;
58784;SDS011;44557;51.862;19.378;2024-03-07T10:43:31;23.30;;;15.80;;
58784;SDS011;44557;51.862;19.378;2024-03-07T10:45:46;23.80;;;15.80;;
58784;SDS011;44557;51.862;19.378;2024-03-07T10:47:52;24.60;;;16.00;;
58784;SDS011;44557;51.862;19.378;2024-03-07T10:52:02;20.60;;;15.30;;
58784;SDS011;44557;51.862;19.378;2024-03-07T10:56:29;20.50;;;14.90;;
58784;SDS011;44557;51.862;19.378;2024-03-07T11:00:56;22.60;;;15.40;;
58784;SDS011;44557;51.862;19.378;2024-03-07T11:03:00;20.80;;;14.50;;
58784;SDS011;44557;51.862;19.378;2024-03-07T11:05:08;23.10;;;16.30;;
58784;SDS011;44557;51.862;19.378;2024-03-07T11:07:14;23.80;;;16.70;;
58784;SDS011;44557;51.862;19.378;2024-03-07T11:09:16;24.10;;;16.90;;
58784;SDS011;44557;51.862;19.378;2024-03-07T11:11:24;24.80;;;17.00;;
58784;SDS011;44557;51.862;19.378;2024-03-07T11:13:27;23.10;;;17.00;;
58784;SDS011;44557;51.862;19.378;2024-03-07T11:15:32;26.30;;;17.80;;
58784;SDS011;44557;51.862;19.378;2024-03-07T11:17:34;23.80;;;17.00;;
58784;SDS011;44557;51.862;19.378;2024-03-07T11:19:38;22.30;;;15.50;;
58784;SDS011;44557;51.862;19.378;2024-03-07T11:21:40;22.40;;;16.40;;
58784;SDS011;44557;51.862;19.378;2024-03-07T11:23:44;21.70;;;15.80;;
58784;SDS011;44557;51.862;19.378;2024-03-07T11:25:47;23.50;;;16.00;;
58784;SDS011;44557;51.862;19.378;2024-03-07T11:27:56;23.10;;;16.20;;
58784;SDS011;44557;51.862;19.378;2024-03-07T11:30:05;20.00;;;14.60;;
58784;SDS011;44557;51.862;19.378;2024-03-07T11:32:15;22.20;;;16.70;;
58784;SDS011;44557;51.862;19.378;2024-03-07T11:34:17;22.30;;;15.90;;
58784;SDS011;44557;51.862;19.378;2024-03-07T11:36:42;24.40;;;16.50;;
58784;SDS011;44557;51.862;19.378;2024-03-07T11:38:47;23.10;;;17.00;;
58784;SDS011;44557;51.862;19.378;2024-03-07T11:40:53;24.20;;;16.90;;
58784;SDS011;44557;51.862;19.378;2024-03-07T11:42:58;22.00;;;16.30;;
58784;SDS011;44557;51.862;19.378;2024-03-07T11:45:06;24.80;;;16.80;;
58784;SDS011;44557;51.862;19.378;2024-03-07T11:47:08;22.70;;;15.50;;
58784;SDS011;44557;51.862;19.378;2024-03-07T11:49:09;22.10;;;15.90;;
58784;SDS011;44557;51.862;19.378;2024-03-07T11:51:17;21.80;;;15.10;;
58784;SDS011;44557;51.862;19.378;2024-03-07T11:53:19;23.40;;;15.80;;
58784;SDS011;44557;51.862;19.378;2024-03-07T11:55:21;22.20;;;15.90;;
58784;SDS011;44557;51.862;19.378;2024-03-07T11:57:23;22.10;;;15.30;;